createdAt,value
2022-08-05T00:00:55.903Z,93873.78
2022-08-05T00:03:44.764Z,93871.06
2022-08-05T00:06:29.385Z,93880.38
2022-08-05T00:09:00.999Z,93879.56
2022-08-05T00:11:34.835Z,93875.22
2022-08-05T00:14:17.198Z,93875.22
2022-08-05T00:16:52.729Z,93872.50
2022-08-05T00:19:23.487Z,93875.53
2022-08-05T00:21:53.949Z,93872.00
2022-08-05T00:24:24.544Z,93869.75
2022-08-05T00:26:53.250Z,93869.75
2022-08-05T00:29:22.334Z,93863.97
2022-08-05T00:32:11.147Z,93859.63
2022-08-05T00:34:55.857Z,93868.94
2022-08-05T00:37:35.313Z,93866.22
2022-08-05T00:40:17.803Z,93867.31
2022-08-05T00:42:55.563Z,93864.59
2022-08-05T00:45:27.992Z,93872.28
2022-08-05T00:48:06.395Z,93868.75
2022-08-05T00:50:36.054Z,93870.69
2022-08-05T00:53:16.076Z,93863.28
2022-08-05T00:55:51.944Z,93867.13
2022-08-05T00:58:19.725Z,93862.47
2022-08-05T01:00:47.591Z,93867.94
2022-08-05T01:03:22.832Z,93864.09
2022-08-05T01:05:54.423Z,93861.66
2022-08-05T01:08:41.409Z,93857.81
2022-08-05T01:11:13.502Z,93863.59
2022-08-05T01:13:58.494Z,93860.88
2022-08-05T01:16:29.948Z,93860.03
2022-08-05T01:19:01.065Z,93861.97
2022-08-05T01:22:24.052Z,93863.91
2022-08-05T01:25:02.618Z,93861.16
2022-08-05T01:27:55.423Z,93857.63
2022-08-05T01:30:33.609Z,93861.16
2022-08-05T01:33:02.805Z,93863.09
2022-08-05T01:35:52.193Z,93858.75
2022-08-05T01:38:24.738Z,93860.38
2022-08-05T01:40:57.097Z,93861.50
2022-08-05T01:43:26.054Z,93862.56
2022-08-05T01:45:56.389Z,93860.66
2022-08-05T01:48:25.020Z,93862.91
2022-08-05T01:50:52.777Z,93868.88
2022-08-05T01:53:57.517Z,93871.59
2022-08-05T01:56:09.192Z,93877.88
2022-08-05T01:58:45.191Z,93865.31
2022-08-05T02:01:13.439Z,93871.09
2022-08-05T02:03:43.621Z,93872.72
2022-08-05T02:06:24.023Z,93873.84
2022-08-05T02:08:59.409Z,93869.16
2022-08-05T02:11:33.598Z,93874.31
2022-08-05T02:14:05.429Z,93877.88
2022-08-05T02:16:34.096Z,93875.44
2022-08-05T02:19:07.186Z,93871.59
2022-08-05T02:21:55.769Z,93868.03
2022-08-05T02:24:24.005Z,93869.47
2022-08-05T02:26:54.805Z,93873.84
2022-08-05T02:29:58.170Z,93868.38
2022-08-05T02:32:12.968Z,93870.28
2022-08-05T02:34:54.612Z,93866.25
2022-08-05T02:37:23.417Z,93875.25
2022-08-05T02:39:52.640Z,93872.84
2022-08-05T02:42:27.593Z,93863.81
2022-08-05T02:44:59.826Z,93865.72
2022-08-05T02:48:06.901Z,93869.28
2022-08-05T02:50:18.032Z,93868.16
2022-08-05T02:52:45.854Z,93864.63
2022-08-05T02:55:13.434Z,93870.91
2022-08-05T02:58:09.708Z,93867.38
2022-08-05T03:00:29.977Z,93869.00
2022-08-05T03:02:57.575Z,93867.38
2022-08-05T03:06:56.807Z,93863.00
2022-08-05T03:08:14.725Z,93864.63
2022-08-05T03:10:44.672Z,93863.00
2022-08-05T03:13:52.156Z,93865.72
2022-08-05T03:16:21.625Z,93861.38
2022-08-05T03:18:49.258Z,93860.25
2022-08-05T03:21:16.862Z,93861.09
2022-08-05T03:23:45.620Z,93862.19
2022-08-05T03:26:30.252Z,93869.28
2022-08-05T03:28:59.848Z,93862.19
2022-08-05T03:31:57.393Z,93871.50
2022-08-05T03:34:16.378Z,93877.78
2022-08-05T03:36:44.340Z,93886.78
2022-08-05T03:39:13.023Z,93893.38
2022-08-05T03:41:47.577Z,93902.38
2022-08-05T03:44:20.261Z,93910.28
2022-08-05T03:46:49.348Z,93906.41
2022-08-05T03:49:16.941Z,93911.09
2022-08-05T03:52:50.440Z,93914.91
2022-08-05T03:55:53.699Z,93905.91
2022-08-05T03:57:41.129Z,93911.38
2022-08-05T04:00:11.306Z,93918.75
2022-08-05T04:02:51.961Z,93909.44
2022-08-05T04:05:28.120Z,93914.91
2022-08-05T04:08:01.786Z,93911.38
2022-08-05T04:10:37.205Z,93913.00
2022-08-05T04:13:06.246Z,93911.88
2022-08-05T04:15:36.148Z,93911.09
2022-08-05T04:18:06.906Z,93906.41
2022-08-05T04:20:35.500Z,93920.91
2022-08-05T04:23:03.448Z,93911.09
2022-08-05T04:25:58.000Z,93914.63
2022-08-05T04:28:19.017Z,93915.44
2022-08-05T04:30:47.061Z,93925.25
2022-08-05T04:33:17.184Z,93918.97
2022-08-05T04:36:16.831Z,93918.97
2022-08-05T04:38:55.030Z,93917.06
2022-08-05T04:41:36.606Z,93920.59
2022-08-05T04:44:09.065Z,93919.78
2022-08-05T04:46:37.476Z,93914.31
2022-08-05T04:49:14.675Z,93920.59
2022-08-05T04:51:43.570Z,93926.88
2022-08-05T04:54:12.189Z,93924.94
2022-08-05T04:56:40.187Z,93934.75
2022-08-05T04:59:17.464Z,93932.00
2022-08-05T05:02:34.918Z,93932.00
2022-08-05T05:04:44.003Z,93932.84
2022-08-05T05:07:16.075Z,93933.63
2022-08-05T05:09:44.833Z,93934.44
2022-08-05T05:12:12.672Z,93935.28
2022-08-05T05:14:49.503Z,93945.38
2022-08-05T05:17:23.842Z,93948.13
2022-08-05T05:19:56.672Z,93945.38
2022-08-05T05:22:26.091Z,93949.72
2022-08-05T05:24:58.888Z,93948.94
2022-08-05T05:27:44.178Z,93954.41
2022-08-05T05:30:28.818Z,93955.19
2022-08-05T05:33:00.396Z,93951.69
2022-08-05T05:35:34.279Z,93952.47
2022-08-05T05:38:09.242Z,93955.19
2022-08-05T05:40:43.794Z,93950.56
2022-08-05T05:43:27.918Z,93952.19
2022-08-05T05:46:10.695Z,93956.81
2022-08-05T05:48:42.095Z,93951.34
2022-08-05T05:51:15.501Z,93956.81
2022-08-05T05:53:46.091Z,93963.09
2022-08-05T05:56:32.471Z,93962.28
2022-08-05T05:59:02.967Z,93963.91
2022-08-05T06:01:37.772Z,93961.16
2022-08-05T06:04:07.942Z,93957.63
2022-08-05T06:06:37.004Z,93953.78
2022-08-05T06:09:09.512Z,93950.22
2022-08-05T06:11:59.468Z,93952.97
2022-08-05T06:14:29.958Z,93957.03
2022-08-05T06:16:57.947Z,93958.63
2022-08-05T06:19:35.088Z,93964.59
2022-08-05T06:22:04.716Z,93964.31
2022-08-05T06:24:34.785Z,93960.47
2022-08-05T06:27:04.154Z,93966.44
2022-08-05T06:29:49.361Z,93951.66
2022-08-05T06:32:25.465Z,93972.09
2022-08-05T06:34:56.667Z,93976.44
2022-08-05T06:37:56.424Z,93981.09
2022-08-05T06:40:18.415Z,93982.72
2022-08-05T06:42:51.870Z,93982.41
2022-08-05T06:45:34.179Z,93982.13
2022-08-05T06:48:36.810Z,93987.59
2022-08-05T06:50:55.967Z,93984.53
2022-08-05T06:53:28.481Z,93991.63
2022-08-05T06:55:56.669Z,93992.44
2022-08-05T06:58:35.334Z,94002.25
2022-08-05T07:01:05.203Z,94005.78
2022-08-05T07:03:33.440Z,94019.16
2022-08-05T07:06:01.893Z,94025.47
2022-08-05T07:08:35.300Z,94035.28
2022-08-05T07:11:25.205Z,94036.06
2022-08-05T07:14:32.204Z,94045.38
2022-08-05T07:17:57.033Z,94052.47
2022-08-05T07:20:32.059Z,94061.50
2022-08-05T07:22:37.882Z,94070.00
2022-08-05T07:25:21.828Z,94064.53
2022-08-05T07:27:57.586Z,94068.38
2022-08-05T07:30:31.963Z,94074.34
2022-08-05T07:32:59.985Z,94078.19
2022-08-05T07:36:02.813Z,94085.63
2022-08-05T07:38:32.339Z,94104.44
2022-08-05T07:41:34.958Z,94110.22
2022-08-05T07:43:52.266Z,94118.41
2022-08-05T07:46:24.762Z,94120.34
2022-08-05T07:49:03.653Z,94124.69
2022-08-05T07:51:40.963Z,94121.94
2022-08-05T07:54:16.510Z,94126.63
2022-08-05T07:57:02.422Z,94125.81
2022-08-05T07:59:40.585Z,94126.31
2022-08-05T08:02:16.063Z,94122.44
2022-08-05T08:04:48.562Z,94126.81
2022-08-05T08:07:17.762Z,94136.63
2022-08-05T08:09:45.414Z,94136.63
2022-08-05T08:12:35.057Z,94136.94
2022-08-05T08:15:03.635Z,94145.94
2022-08-05T08:17:32.538Z,94145.94
2022-08-05T08:20:22.727Z,94143.75
2022-08-05T08:22:52.366Z,94153.03
2022-08-05T08:25:26.831Z,94153.56
2022-08-05T08:28:17.988Z,94153.56
2022-08-05T08:30:47.836Z,94163.41
2022-08-05T08:33:17.583Z,94174.84
2022-08-05T08:35:53.112Z,94167.44
2022-08-05T08:38:37.526Z,94164.41
2022-08-05T08:41:08.292Z,94171.19
2022-08-05T08:45:18.348Z,94167.34
2022-08-05T08:46:25.976Z,94170.09
2022-08-05T08:49:08.101Z,94176.84
2022-08-05T08:52:03.941Z,94177.41
2022-08-05T08:54:29.678Z,94170.00
2022-08-05T08:56:57.468Z,94179.84
2022-08-05T08:59:27.708Z,94185.31
2022-08-05T09:02:01.400Z,94186.13
2022-08-05T09:04:30.471Z,94193.22
2022-08-05T09:06:58.748Z,94195.13
2022-08-05T09:09:34.624Z,94194.84
2022-08-05T09:12:20.228Z,94200.31
2022-08-05T09:14:58.376Z,94204.66
2022-08-05T09:17:42.647Z,94211.25
2022-08-05T09:20:36.560Z,94214.00
2022-08-05T09:23:19.891Z,94219.75
2022-08-05T09:26:00.898Z,94223.59
2022-08-05T09:28:31.978Z,94227.44
2022-08-05T09:31:22.230Z,94226.66
2022-08-05T09:33:53.688Z,94217.31
2022-08-05T09:36:21.983Z,94225.22
2022-08-05T09:38:58.941Z,94223.81
2022-08-05T09:41:26.793Z,94225.72
2022-08-05T09:44:00.990Z,94224.94
2022-08-05T09:46:30.949Z,94222.47
2022-08-05T09:49:08.260Z,94222.47
2022-08-05T09:51:49.357Z,94216.22
2022-08-05T09:54:29.014Z,94217.84
2022-08-05T09:56:57.551Z,94218.13
2022-08-05T09:59:27.465Z,94212.88
2022-08-05T10:01:57.764Z,94213.69
2022-08-05T10:04:35.636Z,94224.31
2022-08-05T10:07:14.102Z,94219.66
2022-08-05T10:10:13.938Z,94218.56
2022-08-05T10:12:49.173Z,94206.78
2022-08-05T10:15:22.752Z,94211.16
2022-08-05T10:18:09.528Z,94215.00
2022-08-05T10:20:38.666Z,94205.16
2022-08-05T10:23:08.900Z,94204.66
2022-08-05T10:25:55.007Z,94211.25
2022-08-05T10:28:30.242Z,94215.91
2022-08-05T10:32:50.554Z,94213.16
2022-08-05T10:33:52.378Z,94210.13
2022-08-05T10:36:23.388Z,94209.03
2022-08-05T10:38:51.470Z,94201.63
2022-08-05T10:41:23.198Z,94205.16
2022-08-05T10:43:53.101Z,94207.09
2022-08-05T10:46:23.900Z,94206.00
2022-08-05T10:49:00.491Z,94202.13
2022-08-05T10:51:53.095Z,94204.06
2022-08-05T10:54:56.378Z,94197.47
2022-08-05T10:57:29.423Z,94193.09
2022-08-05T11:00:19.256Z,94202.94
2022-08-05T11:03:25.979Z,94201.31
2022-08-05T11:06:15.382Z,94203.75
2022-08-05T11:09:39.051Z,94194.72
2022-08-05T11:12:45.411Z,94196.06
2022-08-05T11:15:21.433Z,94188.69
2022-08-05T11:17:57.181Z,94197.38
2022-08-05T11:20:41.805Z,94195.16
2022-08-05T11:24:04.965Z,94184.50
2022-08-05T11:26:28.563Z,94174.38
2022-08-05T11:29:13.435Z,94176.63
2022-08-05T11:31:56.713Z,94179.03
2022-08-05T11:34:51.665Z,94170.03
2022-08-05T11:38:26.610Z,94174.38
2022-08-05T11:41:35.510Z,94179.03
2022-08-05T11:44:05.002Z,94176.31
2022-08-05T11:46:35.400Z,94174.38
2022-08-05T11:49:03.323Z,94177.91
2022-08-05T11:51:43.971Z,94169.91
2022-08-05T11:54:22.358Z,94159.81
2022-08-05T11:57:08.142Z,94155.13
2022-08-05T11:59:50.683Z,94160.59
2022-08-05T12:02:30.920Z,94157.84
2022-08-05T12:05:00.551Z,94159.69
2022-08-05T12:08:03.758Z,94153.81
2022-08-05T12:10:18.406Z,94159.38
2022-08-05T12:12:58.410Z,94148.50
2022-08-05T12:15:38.447Z,94148.09
2022-08-05T12:18:10.822Z,94155.88
2022-08-05T12:20:39.248Z,94146.47
2022-08-05T12:23:10.244Z,94150.22
2022-08-05T12:25:50.302Z,94149.59
2022-08-05T12:28:33.067Z,94140.97
2022-08-05T12:31:01.938Z,94142.00
2022-08-05T12:33:37.176Z,94135.88
2022-08-05T12:36:08.328Z,94138.81
2022-08-05T12:38:37.544Z,94125.63
2022-08-05T12:41:13.176Z,94131.28
2022-08-05T12:43:52.900Z,94128.72
2022-08-05T12:46:29.301Z,94131.97
2022-08-05T12:48:58.821Z,94119.88
2022-08-05T12:52:13.717Z,94112.19
2022-08-05T12:54:23.426Z,94115.72
2022-08-05T12:56:52.334Z,94102.22
2022-08-05T12:59:46.894Z,94097.22
2022-08-05T13:02:12.110Z,94097.72
2022-08-05T13:04:41.753Z,94097.91
2022-08-05T13:07:41.374Z,94104.22
2022-08-05T13:10:11.418Z,94109.38
2022-08-05T13:12:51.220Z,94101.97
2022-08-05T13:15:41.558Z,94101.66
2022-08-05T13:18:19.751Z,94105.22
2022-08-05T13:20:49.201Z,94109.25
2022-08-05T13:23:18.030Z,94104.09
2022-08-05T13:25:52.301Z,94107.63
2022-08-05T13:28:26.698Z,94106.53
2022-08-05T13:30:55.781Z,94099.91
2022-08-05T13:34:22.502Z,94098.47
2022-08-05T13:36:14.578Z,94093.47
2022-08-05T13:38:43.211Z,94091.56
2022-08-05T13:41:11.118Z,94082.84
2022-08-05T13:43:44.094Z,94078.69
2022-08-05T13:46:16.113Z,94073.34
2022-08-05T13:48:57.575Z,94078.53
2022-08-05T13:51:40.673Z,94074.03
2022-08-05T13:54:12.291Z,94070.19
2022-08-05T13:56:45.443Z,94070.78
2022-08-05T13:59:19.763Z,94079.16
2022-08-05T14:01:56.486Z,94073.50
2022-08-05T14:04:43.533Z,94068.16
2022-08-05T14:07:25.361Z,94070.38
2022-08-05T14:09:54.489Z,94067.47
2022-08-05T14:12:32.674Z,94065.03
2022-08-05T14:15:00.763Z,94064.22
2022-08-05T14:17:35.051Z,94055.88
2022-08-05T14:20:06.777Z,94054.94
2022-08-05T14:22:35.972Z,94049.63
2022-08-05T14:25:06.241Z,94049.94
2022-08-05T14:27:48.346Z,94047.50
2022-08-05T14:30:20.130Z,94039.28
2022-08-05T14:32:51.229Z,94032.19
2022-08-05T14:35:20.628Z,94021.22
2022-08-05T14:37:54.983Z,94018.81
2022-08-05T14:40:24.485Z,94018.63
2022-08-05T14:42:52.315Z,94018.00
2022-08-05T14:45:19.936Z,94009.47
2022-08-05T14:48:03.857Z,94013.84
2022-08-05T14:50:33.477Z,94013.34
2022-08-05T14:53:07.534Z,94013.34
2022-08-05T14:55:39.117Z,94012.81
2022-08-05T14:58:11.611Z,94006.56
2022-08-05T15:00:59.542Z,94006.56
2022-08-05T15:03:34.170Z,94009.59
2022-08-05T15:06:15.100Z,94005.25
2022-08-05T15:08:59.046Z,94004.75
2022-08-05T15:11:51.829Z,94006.19
2022-08-05T15:14:33.380Z,94004.25
2022-08-05T15:17:05.448Z,94005.69
2022-08-05T15:19:50.027Z,94006.03
2022-08-05T15:22:27.403Z,94005.19
2022-08-05T15:24:56.086Z,94011.81
2022-08-05T15:27:25.686Z,94011.31
2022-08-05T15:29:56.487Z,94027.75
2022-08-05T15:32:28.633Z,94024.19
2022-08-05T15:34:57.933Z,94024.53
2022-08-05T15:38:32.636Z,94024.81
2022-08-05T15:40:59.879Z,94025.94
2022-08-05T15:43:10.900Z,94032.53
2022-08-05T15:45:43.943Z,94027.06
2022-08-05T15:48:14.399Z,94038.03
2022-08-05T15:50:45.529Z,94043.81
2022-08-05T15:53:13.560Z,94046.88
2022-08-05T15:56:03.766Z,94043.31
2022-08-05T15:58:29.195Z,94041.69
2022-08-05T16:01:17.375Z,94038.13
2022-08-05T16:03:48.594Z,94032.50
2022-08-05T16:06:20.179Z,94033.09
2022-08-05T16:08:50.399Z,94028.25
2022-08-05T16:11:42.459Z,94017.94
2022-08-05T16:14:09.267Z,94022.41
2022-08-05T16:16:36.967Z,94016.13
2022-08-05T16:19:04.741Z,94020.28
2022-08-05T16:22:00.446Z,94027.69
2022-08-05T16:24:40.172Z,94019.78
2022-08-05T16:27:08.961Z,94025.09
2022-08-05T16:29:37.054Z,94027.50
2022-08-05T16:32:06.293Z,94029.75
2022-08-05T16:34:34.002Z,94024.28
2022-08-05T16:37:02.963Z,94035.50
2022-08-05T16:40:05.071Z,94033.88
2022-08-05T16:42:35.297Z,94035.00
2022-08-05T16:46:02.993Z,94038.06
2022-08-05T16:47:54.272Z,94039.19
2022-08-05T16:50:25.076Z,94039.78
2022-08-05T16:52:54.065Z,94053.97
2022-08-05T16:55:24.552Z,94053.47
2022-08-05T16:57:59.803Z,94040.91
2022-08-05T17:00:34.327Z,94042.03
2022-08-05T17:03:02.788Z,94042.03
2022-08-05T17:05:31.329Z,94040.13
2022-08-05T17:08:00.288Z,94037.03
2022-08-05T17:10:28.028Z,94044.34
2022-08-05T17:12:58.473Z,94039.69
2022-08-05T17:15:26.116Z,94042.41
2022-08-05T17:18:14.329Z,94035.31
2022-08-05T17:20:44.155Z,94039.19
2022-08-05T17:23:42.001Z,94040.47
2022-08-05T17:26:00.887Z,94034.69
2022-08-05T17:28:30.033Z,94037.13
2022-08-05T17:30:57.634Z,94028.94
2022-08-05T17:33:26.181Z,94041.53
2022-08-05T17:36:08.840Z,94032.50
2022-08-05T17:38:39.967Z,94039.56
2022-08-05T17:41:11.685Z,94034.59
2022-08-05T17:43:55.535Z,94037.22
2022-08-05T17:46:23.681Z,94044.19
2022-08-05T17:48:51.310Z,94044.88
2022-08-05T17:51:21.940Z,94049.91
2022-08-05T17:53:54.719Z,94049.19
2022-08-05T17:56:22.878Z,94055.00
2022-08-05T17:58:53.649Z,94047.78
2022-08-05T18:01:21.277Z,94045.22
2022-08-05T18:04:03.594Z,94048.63
2022-08-05T18:06:32.552Z,94050.63
2022-08-05T18:09:03.406Z,94055.34
2022-08-05T18:11:32.955Z,94052.81
2022-08-05T18:14:04.240Z,94058.28
2022-08-05T18:16:34.362Z,94057.97
2022-08-05T18:19:02.878Z,94067.00
2022-08-05T18:22:08.709Z,94068.31
2022-08-05T18:24:19.445Z,94074.78
2022-08-05T18:26:48.682Z,94068.16
2022-08-05T18:29:16.898Z,94067.56
2022-08-05T18:31:44.660Z,94079.50
2022-08-05T18:34:12.753Z,94083.56
2022-08-05T18:36:41.345Z,94090.81
2022-08-05T18:39:42.364Z,94097.91
2022-08-05T18:42:06.129Z,94105.34
2022-08-05T18:44:51.410Z,94107.16
2022-08-05T18:47:26.813Z,94127.13
2022-08-05T18:50:12.894Z,94136.19
2022-08-05T18:52:51.262Z,94150.69
2022-08-05T18:55:19.511Z,94158.94
2022-08-05T18:57:52.874Z,94176.84
2022-08-05T19:00:27.084Z,94181.50
2022-08-05T19:02:56.530Z,94182.94
2022-08-05T19:06:11.985Z,94186.00
2022-08-05T19:08:13.787Z,94177.97
2022-08-05T19:10:43.383Z,94166.66
2022-08-05T19:13:15.695Z,94143.59
2022-08-05T19:15:59.073Z,94137.31
2022-08-05T19:18:28.618Z,94134.75
2022-08-05T19:20:56.600Z,94131.03
2022-08-05T19:24:07.430Z,94139.28
2022-08-05T19:26:12.062Z,94132.19
2022-08-05T19:28:42.255Z,94139.78
2022-08-05T19:31:13.615Z,94135.94
2022-08-05T19:33:48.694Z,94140.59
2022-08-05T19:36:24.855Z,94138.97
2022-08-05T19:38:52.474Z,94139.78
2022-08-05T19:41:21.932Z,94132.66
2022-08-05T19:44:13.833Z,94141.91
2022-08-05T19:46:43.529Z,94151.56
2022-08-05T19:49:12.600Z,94157.69
2022-08-05T19:52:08.947Z,94159.59
2022-08-05T19:54:32.742Z,94164.78
2022-08-05T19:57:02.282Z,94168.84
2022-08-05T19:59:59.549Z,94183.81
2022-08-05T20:02:19.824Z,94190.91
2022-08-05T20:04:48.457Z,94204.50
2022-08-05T20:07:16.293Z,94234.84
2022-08-05T20:10:08.260Z,94259.03
2022-08-05T20:12:46.264Z,94291.34
2022-08-05T20:15:23.211Z,94295.19
2022-08-05T20:18:10.252Z,94320.41
2022-08-05T20:20:55.036Z,94308.13
2022-08-05T20:23:23.917Z,94307.78
2022-08-05T20:26:08.827Z,94309.75
2022-08-05T20:28:44.156Z,94306.88
2022-08-05T20:31:13.779Z,94317.84
2022-08-05T20:33:44.538Z,94318.28
2022-08-05T20:36:14.250Z,94337.59
2022-08-05T20:38:54.114Z,94345.78
2022-08-05T20:41:26.816Z,94339.41
2022-08-05T20:43:59.550Z,94349.38
2022-08-05T20:46:29.938Z,94348.97
2022-08-05T20:48:57.616Z,94358.44
2022-08-05T20:51:26.124Z,94351.13
2022-08-05T20:53:56.991Z,94334.88
2022-08-05T20:56:29.095Z,94327.69
2022-08-05T20:58:59.949Z,94342.09
2022-08-05T21:01:44.878Z,94349.09
2022-08-05T21:04:12.630Z,94353.09
2022-08-05T21:06:44.291Z,94364.44
2022-08-05T21:09:14.794Z,94386.75
2022-08-05T21:12:10.353Z,94410.09
2022-08-05T21:14:32.038Z,94429.88
2022-08-05T21:17:04.882Z,94421.75
2022-08-05T21:19:47.159Z,94425.41
2022-08-05T21:22:21.794Z,94426.81
2022-08-05T21:24:51.620Z,94424.63
2022-08-05T21:27:20.634Z,94429.59
2022-08-05T21:29:53.971Z,94428.50
2022-08-05T21:32:26.791Z,94428.28
2022-08-05T21:35:06.650Z,94434.13
2022-08-05T21:37:47.056Z,94461.81
2022-08-05T21:40:16.444Z,94453.59
2022-08-05T21:42:45.644Z,94453.91
2022-08-05T21:45:24.068Z,94442.97
2022-08-05T21:47:56.952Z,94451.75
2022-08-05T21:50:25.346Z,94452.88
2022-08-05T21:52:53.080Z,94451.25
2022-08-05T21:56:01.217Z,94442.22
2022-08-05T21:58:10.426Z,94440.09
2022-08-05T22:00:40.141Z,94451.63
2022-08-05T22:03:14.336Z,94437.44
2022-08-05T22:05:49.180Z,94438.81
2022-08-05T22:08:22.291Z,94442.47
2022-08-05T22:10:51.776Z,94444.72
2022-08-05T22:14:19.826Z,94443.66
2022-08-05T22:16:32.320Z,94453.28
2022-08-05T22:18:58.645Z,94460.69
2022-08-05T22:21:26.553Z,94471.91
2022-08-05T22:24:13.299Z,94467.53
2022-08-05T22:27:17.580Z,94467.25
2022-08-05T22:29:45.943Z,94475.75
2022-08-05T22:32:17.208Z,94485.06
2022-08-05T22:34:46.693Z,94480.72
2022-08-05T22:37:14.319Z,94489.25
2022-08-05T22:39:41.957Z,94482.94
2022-08-05T22:42:15.399Z,94507.06
2022-08-05T22:44:56.365Z,94508.16
2022-08-05T22:47:29.115Z,94512.81
2022-08-05T22:50:20.636Z,94506.81
2022-08-05T22:52:48.370Z,94499.72
2022-08-05T22:55:18.638Z,94503.28
2022-08-05T22:57:47.280Z,94502.75
2022-08-05T23:00:18.428Z,94516.97
2022-08-05T23:02:48.830Z,94512.88
2022-08-05T23:05:18.273Z,94519.16
2022-08-05T23:07:48.574Z,94518.66
2022-08-05T23:10:19.717Z,94523.31
2022-08-05T23:12:48.072Z,94524.44
2022-08-05T23:15:19.381Z,94520.06
2022-08-05T23:18:01.727Z,94517.03
2022-08-05T23:20:33.062Z,94506.41
2022-08-05T23:23:03.380Z,94507.19
2022-08-05T23:25:51.257Z,94502.81
2022-08-05T23:28:18.948Z,94510.53
2022-08-05T23:30:53.597Z,94520.63
2022-08-05T23:33:26.249Z,94518.22
2022-08-05T23:36:11.030Z,94523.38
2022-08-05T23:38:41.796Z,94531.06
2022-08-05T23:41:10.551Z,94536.25
2022-08-05T23:44:06.520Z,94547.19
2022-08-05T23:46:26.072Z,94566.84
2022-08-05T23:49:01.114Z,94595.84
2022-08-05T23:51:54.218Z,94574.78
2022-08-05T23:54:25.878Z,94593.63
2022-08-05T23:56:55.201Z,94596.88
2022-08-05T23:59:23.173Z,94603.22
